Station: Marree Airport

  Atmospheric Gas Attenuation - ITU Rec 676-11   --------------- db/100km ---------------
Date Time Temp RH % AH g/m3 Dew Point Wind Direction Speed kph Gust kph Barometer mB Rainfall Since 9am 24GHz 47GHz 76GHz 122GHz 134GHz 241GHz
17 02:10 5.5 47 3.3 -4.9 7 9 1022.1 0 8.6 20.1 23.1 59.7 39.4 130.0
17 02:00 5.3 47 3.26 -5.1 9 11 1022.1 0 8.5 20.1 23.1 59.4 39.0 128.6
17 01:50 4.9 46 3.11 -5.7 9 11 1022.2 0 8.2 20.0 22.6 58.3 37.4 123.0
17 01:40 5 45 3.06 -5.9 9 9 1022.1 0 8.1 19.9 22.4 57.7 36.7 120.7
17 01:30 5.1 45 3.08 -5.8 6 7 1022.2 0 8.1 19.9 22.5 57.9 36.9 121.4
17 01:20 5.5 45 3.16 -5.5 4 6 1022.3 0 8.3 19.9 22.6 58.3 37.7 124.2
17 01:10 5.6 44 3.11 -5.7 4 6 1022.5 0 8.2 19.9 22.4 57.8 37.1 121.9
17 01:00 6.6 45 3.4 -4.5 9 11 1022.7 0 8.8 20.1 23.2 59.9 40.0 132.5
17 00:50 6.7 44 3.35 -4.7 9 11 1022.6 0 8.7 20.0 23.0 59.3 39.4 130.2
17 00:40 6.9 45 3.47 -4.2 11 11 1022.8 0 8.9 20.1 23.4 60.3 40.7 134.9
17 00:30 6.4 44 3.28 -4.9 11 13 1023 0 8.5 20.0 22.8 58.9 38.7 127.8
17 00:20 6.9 43 3.31 -4.8 13 13 1022.9 0 8.6 19.9 22.8 58.8 38.8 128.3
17 00:10 7.2 42 3.3 -4.8 9 9 1022.9 0 8.5 19.8 22.7 58.5 38.6 127.4
17 00:00 7.5 43 3.44 -4.2 11 13 1023 0 8.8 19.9 23.1 59.6 40.0 132.7
16 23:50 7.7 43 3.49 -4.1 11 11 1023 0 8.9 20.0 23.2 59.9 40.5 134.4
16 23:40 7.1 42 3.28 -4.9 11 11 1023.1 0 8.5 19.8 22.7 58.4 38.4 126.8
16 23:30 7.4 41 3.26 -5 9 11 1023.3 0 8.5 19.7 22.5 58.0 38.0 125.5
16 23:20 7.6 41 3.3 -4.8 9 9 1023.2 0 8.5 19.7 22.6 58.2 38.4 126.8
16 23:10 7.6 40 3.22 -5.1 7 9 1023.2 0 8.4 19.6 22.3 57.5 37.5 123.5
16 23:00 8.6 41 3.52 -3.9 2 7 1023.3 0 9.0 19.8 23.1 59.6 40.4 134.2
16 22:50 8.8 42 3.66 -3.4 6 7 1023.2 0 9.3 20.0 23.5 60.7 42.0 139.6
16 22:40 9.4 41 3.71 -3.2 6 6 1023.2 0 9.4 19.9 23.5 60.7 42.2 140.6
16 22:30 9 41 3.62 -3.5 9 9 1023.4 0 9.2 19.9 23.3 60.2 41.4 137.6
16 22:20 9 40 3.53 -3.9 9 9 1023.3 0 9.0 19.8 23.0 59.4 40.4 134.0
16 22:10 9.4 41 3.71 -3.2 11 11 1023.3 0 9.4 19.9 23.5 60.7 42.2 140.6
16 22:00 9.4 41 3.71 -3.2 11 13 1023.4 0 9.4 19.9 23.5 60.7 42.2 140.6
16 21:50 9.7 41 3.78 -2.9 11 13 1023.2 0 9.5 20.0 23.7 61.2 42.9 142.9
16 21:40 10 41 3.85 -2.6 13 15 1023.3 0 9.6 20.0 23.8 61.6 43.5 145.3
16 21:30 9.8 39 3.62 -3.5 13 15 1023.4 0 9.2 19.7 23.1 59.6 41.0 136.3
16 21:20 10 38 3.57 -3.6 13 15 1023.3 0 9.0 19.6 22.9 59.0 40.3 134.0
16 21:10 10.2 37 3.52 -3.8 11 13 1023.2 0 8.9 19.5 22.6 58.4 39.6 131.6
16 21:00 10.9 37 3.68 -3.2 7 11 1023.3 0 9.2 19.6 23.0 59.3 41.1 136.9
16 20:50 10.6 37 3.61 -3.5 11 13 1023.2 0 9.1 19.5 22.8 58.9 40.5 134.6
16 20:40 11.5 36 3.72 -3 6 6 1023.2 0 9.3 19.5 23.0 59.3 41.3 137.5
16 20:30 11 35 3.5 -3.8 7 7 1023.3 0 8.9 19.3 22.4 57.6 39.0 129.6
16 20:20 11 34 3.4 -4.2 7 7 1023.2 0 8.7 19.2 22.0 56.7 37.9 125.6
16 20:10 11.2 35 3.55 -3.7 9 11 1023.2 0 9.0 19.3 22.5 57.9 39.5 131.2
16 20:00 11.3 35 3.57 -3.6 11 11 1023.3 0 9.0 19.3 22.5 58.1 39.7 131.9
16 19:50 12 35 3.73 -3 9 9 1023.1 0 9.3 19.4 22.9 59.0 41.1 137.0
16 19:40 12.9 32 3.61 -3.4 6 7 1023 0 9.0 19.1 22.2 57.3 39.3 130.8
16 19:30 13.9 34 4.08 -1.7 6 7 1023.1 0 10.0 19.5 23.5 60.7 44.0 147.5
16 19:20 14.2 33 4.03 -1.8 7 7 1022.9 0 9.9 19.4 23.3 60.1 43.3 145.0
16 19:10 14.6 33 4.13 -1.5 7 9 1022.8 0 10.1 19.4 23.5 60.7 44.2 148.1
16 19:00 14.8 31 3.93 -2.1 9 11 1022.7 0 9.7 19.1 22.7 58.7 41.9 140.0
16 18:50 15.4 31 4.07 -1.6 11 11 1022.5 0 9.9 19.1 23.0 59.5 43.1 144.4
16 18:40 15.9 30 4.06 -1.6 11 11 1022.4 0 9.9 19.0 22.9 59.1 42.7 143.1
16 18:30 16.6 29 4.1 -1.5 11 11 1022.4 0 10.0 18.9 22.8 58.9 42.8 143.4
16 18:20 17 29 4.2 -1.1 9 11 1022.4 0 10.2 19.0 23.0 59.5 43.6 146.5
16 18:10 17.3 29 4.27 -0.9 11 11 1022.3 0 10.3 19.0 23.2 59.9 44.2 148.6
16 18:00 17.5 28 4.17 -1.2 11 13 1022.3 0 10.1 18.8 22.8 58.9 43.0 144.5
16 17:50 17.8 28 4.25 -0.9 11 13 1022.2 0 10.3 18.9 23.0 59.3 43.7 146.9
16 17:40 18.5 27 4.27 -0.8 9 9 1022.4 0 10.3 18.8 22.8 59.0 43.6 146.5
16 17:30 19.1 27 4.43 -0.3 11 13 1022.4 0 10.6 18.9 23.2 60.0 44.9 151.4
16 17:20 19.6 26 4.39 -0.4 9 11 1022.4 0 10.5 18.7 22.9 59.3 44.2 149.0
16 17:10 20 26 4.49 -0.1 7 9 1022.3 0 10.7 18.8 23.1 59.8 45.1 151.9
16 17:00 20.1 25 4.35 -0.5 9 13 1022.3 0 10.4 18.6 22.7 58.6 43.6 146.6
16 16:50 20.3 25 4.4 -0.3 9 11 1022.3 0 10.5 18.6 22.8 58.8 44.0 148.1
16 16:40 20.3 25 4.4 -0.3 9 9 1022.3 0 10.5 18.6 22.8 58.8 44.0 148.1
16 16:30 20.4 25 4.42 -0.3 4 9 1022.4 0 10.5 18.6 22.8 58.9 44.1 148.7
16 16:20 20.4 25 4.42 -0.3 7 7 1022.4 0 10.5 18.6 22.8 58.9 44.1 148.7
16 16:10 20.4 24 4.25 -0.8 4 6 1022.5 0 10.2 18.4 22.3 57.5 42.4 142.5
16 16:00 20.6 24 4.3 -0.7 9 15 1022.5 0 10.3 18.4 22.4 57.8 42.8 144.0
16 15:50 20.5 25 4.45 -0.2 7 11 1022.5 0 10.6 18.6 22.9 59.1 44.4 149.6
16 15:40 20.5 24 4.27 -0.7 7 9 1022.4 0 10.2 18.4 22.3 57.6 42.5 143.0
16 15:30 20.7 24 4.32 -0.6 6 13 1022.4 0 10.3 18.4 22.4 57.9 42.9 144.5
16 15:20 20.4 25 4.42 -0.3 7 9 1022.5 0 10.5 18.6 22.8 59.0 44.1 148.7
16 15:10 20.5 25 4.45 -0.2 9 11 1022.6 0 10.6 18.6 22.9 59.1 44.4 149.6
16 15:00 20.4 25 4.42 -0.3 13 20 1022.7 0 10.5 18.6 22.8 59.0 44.1 148.7
16 14:50 20.4 25 4.42 -0.3 13 15 1022.8 0 10.5 18.6 22.8 59.0 44.1 148.7
16 14:40 20.4 25 4.42 -0.3 7 11 1022.9 0 10.5 18.6 22.8 59.0 44.2 148.7
16 14:30 20.3 26 4.57 0.2 7 17 1023.1 0 10.8 18.8 23.3 60.3 45.8 154.4
16 14:20 20.4 27 4.78 0.8 13 19 1023.1 0 11.3 19.1 24.0 62.0 47.9 162.0
16 14:10 20.3 26 4.57 0.2 13 15 1023.1 0 10.8 18.8 23.3 60.3 45.8 154.4
16 14:00 20.1 27 4.69 0.5 6 15 1023.3 0 11.1 19.0 23.8 61.5 47.2 159.3
16 13:50 19.8 28 4.78 0.8 6 7 1023.3 0 11.3 19.2 24.1 62.5 48.3 163.2
16 13:40 20.2 28 4.9 1.1 13 15 1023.5 0 11.5 19.3 24.4 63.2 49.3 166.9
16 13:30 19.7 28 4.75 0.7 7 13 1023.8 0 11.2 19.2 24.1 62.3 48.0 162.3
16 13:20 19.6 29 4.9 1.1 7 9 1023.9 0 11.6 19.4 24.6 63.7 49.7 168.2
16 13:10 19.3 30 4.98 1.3 7 9 1024 0 11.7 19.6 24.9 64.7 50.7 171.8
16 13:00 19.3 29 4.81 0.8 4 15 1024.4 0 11.4 19.4 24.4 63.2 48.9 165.5
16 12:50 18.9 30 4.86 1 7 9 1024.5 0 11.5 19.5 24.7 64.0 49.7 168.2
16 12:40 18.7 30 4.8 0.8 9 11 1024.7 0 11.4 19.5 24.6 63.6 49.2 166.3
16 12:30 18.6 31 4.93 1.2 2 9 1025 0 11.6 19.7 25.0 64.8 50.7 171.5
16 12:20 18.2 31 4.82 0.8 9 11 1025.1 0 11.4 19.7 24.8 64.2 49.7 168.1
16 12:10 18 31 4.76 0.6 9 11 1025.4 0 11.3 19.6 24.7 63.8 49.2 166.3
16 12:00 17.5 32 4.77 0.6 6 9 1025.8 0 11.3 19.8 24.8 64.4 49.7 167.7
16 11:50 17.9 32 4.89 1 2 9 1025.9 0 11.6 19.8 25.1 65.1 50.7 171.6
16 11:40 17.8 33 5.01 1.3 0 0 1026.1 0 11.8 20.0 25.6 66.3 52.1 176.4
16 11:30 17 34 4.92 1 6 9 1026.3 0 11.7 20.1 25.5 66.1 51.6 174.7
16 11:20 16.7 35 4.97 1.2 9 9 1026.4 0 11.8 20.2 25.8 66.8 52.4 177.3
16 11:10 16.1 36 4.93 1 7 9 1026.5 0 11.7 20.3 25.8 67.0 52.3 177.0
16 11:00 15.5 37 4.89 0.9 9 11 1026.6 0 11.7 20.4 25.9 67.1 52.3 176.7
16 10:50 15.1 38 4.9 0.9 7 9 1026.5 0 11.7 20.5 26.0 67.5 52.6 178.0
16 10:40 14.3 39 4.79 0.5 6 7 1026.6 0 11.5 20.5 25.9 67.2 51.9 175.3
16 10:30 13.8 40 4.77 0.5 7 11 1026.8 0 11.5 20.6 26.0 67.4 52.0 175.6
16 10:20 13.2 42 4.82 0.6 9 11 1026.8 0 11.6 20.8 26.4 68.4 53.0 178.9
16 10:10 12.6 44 4.87 0.7 11 11 1026.8 0 11.7 21.0 26.7 69.3 54.0 182.3
16 10:00 12.1 45 4.83 0.5 13 15 1026.9 0 11.6 21.1 26.8 69.4 53.8 181.8
16 09:50 11.4 47 4.83 0.5 11 13 1026.7 0 11.7 21.2 27.0 70.0 54.3 183.3
16 09:40 10.6 48 4.69 0.1 13 13 1026.7 0 11.4 21.2 26.7 69.3 53.2 179.2

Last Refresh: 17-Jul-2020 02:19:58

Most of the information presented on this site is sourced from the Bureau of Meteorology.  Copyright in all material sourced from the Bureau of Meteorology resides with the Commonwealth of Australia.